createdAt,value
2022-12-15T00:02:17.491Z,95899.66
2022-12-15T00:05:02.710Z,95906.22
2022-12-15T00:07:48.052Z,95906.50
2022-12-15T00:10:33.720Z,95906.00
2022-12-15T00:13:18.886Z,95906.03
2022-12-15T00:16:07.421Z,95909.75
2022-12-15T00:18:52.904Z,95903.63
2022-12-15T00:21:38.018Z,95915.56
2022-12-15T00:24:23.870Z,95917.25
2022-12-15T00:27:09.097Z,95919.44
2022-12-15T00:29:54.710Z,95927.22
2022-12-15T00:32:40.956Z,95924.63
2022-12-15T00:35:27.558Z,95920.38
2022-12-15T00:38:12.879Z,95914.38
2022-12-15T00:40:39.571Z,95917.84
2022-12-15T00:43:06.218Z,95923.84
2022-12-15T00:45:51.212Z,95931.81
2022-12-15T00:48:17.812Z,95935.16
2022-12-15T00:50:53.392Z,95941.22
2022-12-15T00:53:40.003Z,95938.53
2022-12-15T00:56:26.310Z,95937.69
2022-12-15T00:59:11.859Z,95944.59
2022-12-15T01:01:57.773Z,95942.66
2022-12-15T01:04:43.624Z,95941.75
2022-12-15T01:07:28.910Z,95938.97
2022-12-15T01:10:14.275Z,95944.19
2022-12-15T01:12:59.545Z,95945.25
2022-12-15T01:15:45.098Z,95953.25
2022-12-15T01:18:30.634Z,95953.47
2022-12-15T01:21:03.161Z,95964.44
2022-12-15T01:23:31.402Z,95963.00
2022-12-15T01:25:58.241Z,95957.00
2022-12-15T01:28:25.251Z,95962.53
2022-12-15T01:30:51.893Z,95971.00
2022-12-15T01:33:20.429Z,95978.56
2022-12-15T01:35:58.698Z,95986.06
2022-12-15T01:38:26.576Z,95988.59
2022-12-15T01:40:58.800Z,95977.66
2022-12-15T01:43:29.523Z,95987.91
2022-12-15T01:46:12.111Z,95991.28
2022-12-15T01:48:49.156Z,95997.84
2022-12-15T01:51:36.138Z,95992.84
2022-12-15T01:54:09.968Z,95998.25
2022-12-15T01:56:41.289Z,95998.91
2022-12-15T01:59:11.055Z,96004.72
2022-12-15T02:01:37.698Z,95998.44
2022-12-15T02:04:04.533Z,96000.91
2022-12-15T02:06:31.100Z,96000.72
2022-12-15T02:09:00.664Z,96004.78
2022-12-15T02:12:10.978Z,96005.53
2022-12-15T02:14:55.178Z,96011.41
2022-12-15T02:17:24.401Z,96007.94
2022-12-15T02:19:59.718Z,96019.75
2022-12-15T02:22:35.065Z,96022.06
2022-12-15T02:25:40.497Z,96021.09
2022-12-15T02:28:24.120Z,96022.53
2022-12-15T02:31:33.938Z,96019.78
2022-12-15T02:34:09.684Z,96012.69
2022-12-15T02:36:41.296Z,96008.50
2022-12-15T02:39:07.861Z,96010.16
2022-12-15T02:41:40.935Z,96012.75
2022-12-15T02:44:14.193Z,96015.41
2022-12-15T02:47:11.842Z,95997.31
2022-12-15T02:49:56.942Z,96004.38
2022-12-15T02:52:55.662Z,95998.53
2022-12-15T02:55:41.425Z,96005.84
2022-12-15T02:58:22.537Z,96006.59
2022-12-15T03:01:02.671Z,96004.38
2022-12-15T03:03:33.191Z,96010.03
2022-12-15T03:06:02.222Z,96021.72
2022-12-15T03:08:29.793Z,96015.59
2022-12-15T03:10:57.452Z,96022.31
2022-12-15T03:13:24.704Z,96027.25
2022-12-15T03:15:52.475Z,96032.25
2022-12-15T03:18:19.081Z,96042.41
2022-12-15T03:20:49.947Z,96039.78
2022-12-15T03:23:16.735Z,96037.16
2022-12-15T03:25:46.422Z,96032.81
2022-12-15T03:28:16.747Z,96044.63
2022-12-15T03:30:43.986Z,96035.34
2022-12-15T03:33:11.489Z,96035.97
2022-12-15T03:35:38.080Z,96042.00
2022-12-15T03:38:04.721Z,96038.53
2022-12-15T03:40:31.335Z,96037.59
2022-12-15T03:42:58.900Z,96041.06
2022-12-15T03:45:27.378Z,96048.75
2022-12-15T03:47:55.626Z,96038.38
2022-12-15T03:50:24.928Z,96036.66
2022-12-15T03:53:02.830Z,96029.13
2022-12-15T03:55:29.925Z,96034.38
2022-12-15T03:57:57.199Z,96037.50
2022-12-15T04:00:24.749Z,96034.94
2022-12-15T04:02:52.219Z,96031.38
2022-12-15T04:05:22.663Z,96037.66
2022-12-15T04:07:49.300Z,96037.66
2022-12-15T04:10:16.157Z,96050.50
2022-12-15T04:12:42.743Z,96047.16
2022-12-15T04:15:11.009Z,96059.06
2022-12-15T04:17:38.090Z,96049.00
2022-12-15T04:20:09.042Z,96056.75
2022-12-15T04:22:40.772Z,96061.06
2022-12-15T04:25:28.717Z,96060.91
2022-12-15T04:28:14.648Z,96057.50
2022-12-15T04:31:14.417Z,96055.84
2022-12-15T04:34:03.729Z,96055.06
2022-12-15T04:36:49.900Z,96054.63
2022-12-15T04:39:35.294Z,96059.06
2022-12-15T04:42:21.612Z,96057.47
2022-12-15T04:45:12.208Z,96059.84
2022-12-15T04:47:59.782Z,96065.09
2022-12-15T04:50:45.254Z,96063.81
2022-12-15T04:53:34.353Z,96053.53
2022-12-15T04:56:19.777Z,96059.09
2022-12-15T04:59:06.169Z,96062.94
2022-12-15T05:01:52.652Z,96070.59
2022-12-15T05:04:38.503Z,96069.06
2022-12-15T05:07:23.752Z,96065.66
2022-12-15T05:10:14.646Z,96061.25
2022-12-15T05:13:00.850Z,96061.44
2022-12-15T05:15:46.169Z,96063.81
2022-12-15T05:18:31.375Z,96062.13
2022-12-15T05:21:17.600Z,96069.78
2022-12-15T05:24:02.749Z,96075.94
2022-12-15T05:26:52.693Z,96078.66
2022-12-15T05:29:38.296Z,96086.31
2022-12-15T05:32:04.988Z,96089.78
2022-12-15T05:34:33.832Z,96090.53
2022-12-15T05:37:02.365Z,96090.78
2022-12-15T05:39:29.621Z,96094.97
2022-12-15T05:41:57.275Z,96096.00
2022-12-15T05:44:25.501Z,96113.09
2022-12-15T05:46:52.699Z,96103.66
2022-12-15T05:49:19.439Z,96104.59
2022-12-15T05:51:47.645Z,96104.59
2022-12-15T05:54:17.453Z,96103.88
2022-12-15T05:56:44.956Z,96109.81
2022-12-15T05:59:12.223Z,96104.78
2022-12-15T06:01:39.034Z,96107.16
2022-12-15T06:04:05.827Z,96115.00
2022-12-15T06:06:32.532Z,96109.16
2022-12-15T06:08:59.244Z,96110.66
2022-12-15T06:11:26.264Z,96116.66
2022-12-15T06:13:55.778Z,96121.09
2022-12-15T06:16:24.513Z,96123.63
2022-12-15T06:18:54.888Z,96130.66
2022-12-15T06:21:24.548Z,96140.25
2022-12-15T06:23:51.943Z,96140.25
2022-12-15T06:26:20.595Z,96146.28
2022-12-15T06:28:48.447Z,96143.59
2022-12-15T06:31:17.676Z,96152.22
2022-12-15T06:33:44.328Z,96149.53
2022-12-15T06:36:13.982Z,96155.59
2022-12-15T06:38:43.544Z,96156.56
2022-12-15T06:41:15.280Z,96158.16
2022-12-15T06:43:42.181Z,96150.50
2022-12-15T06:46:09.646Z,96153.22
2022-12-15T06:48:36.659Z,96149.69
2022-12-15T06:51:13.311Z,96143.72
2022-12-15T06:53:50.862Z,96142.00
2022-12-15T06:56:24.463Z,96143.81
2022-12-15T06:58:56.146Z,96141.16
2022-12-15T07:01:24.451Z,96149.84
2022-12-15T07:03:52.734Z,96155.13
2022-12-15T07:06:20.016Z,96155.91
2022-12-15T07:08:54.240Z,96164.19
2022-12-15T07:11:22.223Z,96156.44
2022-12-15T07:13:52.973Z,96151.38
2022-12-15T07:16:21.634Z,96148.09
2022-12-15T07:18:48.865Z,96143.50
2022-12-15T07:21:15.791Z,96149.53
2022-12-15T07:23:58.438Z,96146.16
2022-12-15T07:26:26.139Z,96154.00
2022-12-15T07:28:53.572Z,96157.28
2022-12-15T07:31:21.295Z,96154.38
2022-12-15T07:33:48.441Z,96157.47
2022-12-15T07:36:15.469Z,96154.63
2022-12-15T07:38:42.315Z,96162.13
2022-12-15T07:41:10.122Z,96161.44
2022-12-15T07:43:37.900Z,96167.31
2022-12-15T07:46:06.223Z,96177.56
2022-12-15T07:48:33.392Z,96187.66
2022-12-15T07:51:10.866Z,96179.91
2022-12-15T07:53:38.239Z,96184.25
2022-12-15T07:56:08.898Z,96184.66
2022-12-15T07:58:37.130Z,96172.78
2022-12-15T08:01:06.876Z,96170.81
2022-12-15T08:03:34.665Z,96171.56
2022-12-15T08:06:11.175Z,96168.81
2022-12-15T08:08:38.337Z,96177.47
2022-12-15T08:11:09.868Z,96179.44
2022-12-15T08:16:24.629Z,96181.91
2022-12-15T08:18:51.262Z,96172.22
2022-12-15T08:21:17.945Z,96171.66
2022-12-15T08:23:45.131Z,96159.59
2022-12-15T08:26:14.467Z,96159.44
2022-12-15T08:28:42.933Z,96160.31
2022-12-15T08:31:17.833Z,96176.50
2022-12-15T08:33:45.566Z,96181.13
2022-12-15T08:36:14.429Z,96188.81
2022-12-15T08:38:43.240Z,96183.16
2022-12-15T08:41:13.249Z,96178.22
2022-12-15T08:43:47.659Z,96175.53
2022-12-15T08:46:17.008Z,96176.41
2022-12-15T08:48:44.296Z,96179.75
2022-12-15T08:51:10.987Z,96190.78
2022-12-15T08:53:38.770Z,96202.72
2022-12-15T08:56:12.360Z,96207.47
2022-12-15T08:58:39.629Z,96207.47
2022-12-15T09:01:09.670Z,96214.84
2022-12-15T09:03:36.808Z,96205.28
2022-12-15T09:06:07.070Z,96216.53
2022-12-15T09:08:34.203Z,96208.78
2022-12-15T09:11:01.640Z,96219.53
2022-12-15T09:13:29.502Z,96223.59
2022-12-15T09:16:09.536Z,96222.91
2022-12-15T09:18:36.694Z,96228.00
2022-12-15T09:21:05.305Z,96237.13
2022-12-15T09:23:33.119Z,96246.69
2022-12-15T09:26:10.497Z,96240.59
2022-12-15T09:28:40.390Z,96242.06
2022-12-15T09:31:21.218Z,96246.09
2022-12-15T09:33:49.528Z,96244.78
2022-12-15T09:36:16.221Z,96245.31
2022-12-15T09:38:43.738Z,96251.81
2022-12-15T09:41:13.299Z,96257.34
2022-12-15T09:43:52.209Z,96248.38
2022-12-15T09:46:22.126Z,96258.19
2022-12-15T09:48:50.437Z,96265.94
2022-12-15T09:51:19.222Z,96264.09
2022-12-15T09:53:55.906Z,96276.97
2022-12-15T09:56:58.498Z,96277.66
2022-12-15T09:59:33.262Z,96270.19
2022-12-15T10:02:27.594Z,96268.69
2022-12-15T10:05:14.084Z,96267.41
2022-12-15T10:07:46.274Z,96265.41
2022-12-15T10:10:22.006Z,96265.88
2022-12-15T10:13:00.151Z,96263.84
2022-12-15T10:15:38.632Z,96262.81
2022-12-15T10:18:10.491Z,96262.09
2022-12-15T10:20:37.624Z,96254.22
2022-12-15T10:23:16.245Z,96258.41
2022-12-15T10:25:51.317Z,96272.22
2022-12-15T10:29:02.102Z,96263.66
2022-12-15T10:31:45.196Z,96262.38
2022-12-15T10:34:31.076Z,96261.47
2022-12-15T10:36:58.506Z,96253.31
2022-12-15T10:39:39.825Z,96244.28
2022-12-15T10:42:13.907Z,96247.91
2022-12-15T10:44:44.041Z,96247.25
2022-12-15T10:47:28.479Z,96248.09
2022-12-15T10:50:19.573Z,96249.06
2022-12-15T10:52:50.759Z,96262.63
2022-12-15T10:55:37.886Z,96263.16
2022-12-15T10:58:16.579Z,96246.72
2022-12-15T11:00:43.248Z,96246.66
2022-12-15T11:03:22.944Z,96242.00
2022-12-15T11:05:56.476Z,96239.22
2022-12-15T11:08:24.697Z,96238.19
2022-12-15T11:11:13.607Z,96227.31
2022-12-15T11:13:41.243Z,96221.22
2022-12-15T11:16:26.285Z,96214.16
2022-12-15T11:19:01.998Z,96215.47
2022-12-15T11:21:44.910Z,96219.81
2022-12-15T11:24:21.539Z,96210.66
2022-12-15T11:27:20.992Z,96218.69
2022-12-15T11:30:02.969Z,96209.25
2022-12-15T11:32:34.065Z,96205.69
2022-12-15T11:35:01.160Z,96200.03
2022-12-15T11:37:39.054Z,96200.59
2022-12-15T11:40:17.592Z,96189.59
2022-12-15T11:42:53.009Z,96181.91
2022-12-15T11:45:30.204Z,96174.16
2022-12-15T11:48:19.843Z,96177.44
2022-12-15T11:50:58.975Z,96175.88
2022-12-15T11:53:49.449Z,96179.00
2022-12-15T11:56:35.611Z,96181.59
2022-12-15T11:59:39.948Z,96184.91
2022-12-15T12:02:34.395Z,96190.09
2022-12-15T12:05:00.958Z,96195.16
2022-12-15T12:07:49.204Z,96189.50
2022-12-15T12:10:33.354Z,96192.28
2022-12-15T12:13:33.991Z,96192.66
2022-12-15T12:16:06.714Z,96184.50
2022-12-15T12:18:52.739Z,96185.56
2022-12-15T12:21:37.297Z,96175.22
2022-12-15T12:24:15.957Z,96164.09
2022-12-15T12:26:50.305Z,96163.13
2022-12-15T12:29:29.124Z,96159.38
2022-12-15T12:32:05.391Z,96156.25
2022-12-15T12:35:30.907Z,96144.22
2022-12-15T12:37:54.893Z,96144.34
2022-12-15T12:40:41.945Z,96138.94
2022-12-15T12:43:14.112Z,96140.59
2022-12-15T12:45:51.537Z,96135.00
2022-12-15T12:48:31.090Z,96146.88
2022-12-15T12:51:22.637Z,96144.03
2022-12-15T12:53:50.367Z,96135.44
2022-12-15T12:56:32.595Z,96132.16
2022-12-15T12:58:59.590Z,96128.56
2022-12-15T13:01:34.734Z,96117.63
2022-12-15T13:04:33.840Z,96113.72
2022-12-15T13:07:25.670Z,96097.38
2022-12-15T13:10:14.447Z,96087.28
2022-12-15T13:12:54.681Z,96080.34
2022-12-15T13:15:27.284Z,96082.06
2022-12-15T13:17:59.239Z,96072.53
2022-12-15T13:20:34.853Z,96074.72
2022-12-15T13:23:21.646Z,96064.66
2022-12-15T13:25:57.131Z,96066.00
2022-12-15T13:28:39.732Z,96065.06
2022-12-15T13:31:22.002Z,96064.72
2022-12-15T13:33:58.819Z,96059.94
2022-12-15T13:36:37.712Z,96054.41
2022-12-15T13:39:27.425Z,96049.47
2022-12-15T13:44:57.388Z,96054.03
2022-12-15T13:47:27.478Z,96045.91
2022-12-15T13:50:02.209Z,96038.84
2022-12-15T13:53:08.622Z,96031.19
2022-12-15T13:55:28.802Z,96040.53
2022-12-15T13:58:23.125Z,96036.03
2022-12-15T14:00:57.188Z,96033.13
2022-12-15T14:03:24.582Z,96032.69
2022-12-15T14:05:56.741Z,96040.69
2022-12-15T14:08:25.729Z,96043.75
2022-12-15T14:10:56.767Z,96044.63
2022-12-15T14:13:36.930Z,96046.34
2022-12-15T14:16:19.032Z,96047.09
2022-12-15T14:19:02.401Z,96051.47
2022-12-15T14:21:30.394Z,96056.72
2022-12-15T14:24:36.508Z,96059.59
2022-12-15T14:26:44.510Z,96065.31
2022-12-15T14:29:13.048Z,96075.25
2022-12-15T14:31:40.621Z,96071.03
2022-12-15T14:34:13.589Z,96068.34
2022-12-15T14:36:42.063Z,96078.47
2022-12-15T14:39:19.815Z,96067.63
2022-12-15T14:41:51.421Z,96066.50
2022-12-15T14:44:36.489Z,96083.75
2022-12-15T14:47:15.258Z,96085.25
2022-12-15T14:49:45.256Z,96087.63
2022-12-15T14:52:37.198Z,96093.50
2022-12-15T14:55:36.872Z,96095.47
2022-12-15T14:58:26.593Z,96096.72
2022-12-15T15:00:55.064Z,96102.44
2022-12-15T15:03:27.708Z,96108.34
2022-12-15T15:05:59.933Z,96115.78
2022-12-15T15:08:34.823Z,96125.81
2022-12-15T15:11:23.681Z,96136.06
2022-12-15T15:13:56.093Z,96143.31
2022-12-15T15:16:23.018Z,96149.00
2022-12-15T15:18:52.254Z,96153.06
2022-12-15T15:21:23.333Z,96146.34
2022-12-15T15:24:00.171Z,96151.13
2022-12-15T15:26:27.751Z,96155.69
2022-12-15T15:28:54.694Z,96149.31
2022-12-15T15:31:41.568Z,96139.41
2022-12-15T15:34:08.868Z,96136.50
2022-12-15T15:36:38.263Z,96145.25
2022-12-15T15:39:13.563Z,96139.91
2022-12-15T15:41:40.157Z,96139.66
2022-12-15T15:44:14.749Z,96130.38
2022-12-15T15:46:51.106Z,96143.91
2022-12-15T15:49:21.711Z,96142.81
2022-12-15T15:51:49.046Z,96144.41
2022-12-15T15:54:22.213Z,96153.63
2022-12-15T15:56:48.851Z,96147.31
2022-12-15T15:59:18.238Z,96150.06
2022-12-15T16:01:46.813Z,96157.09
2022-12-15T16:04:13.496Z,96153.06
2022-12-15T16:06:46.683Z,96151.50
2022-12-15T16:09:15.326Z,96163.75
2022-12-15T16:11:42.071Z,96167.00
2022-12-15T16:14:14.096Z,96158.34
2022-12-15T16:16:41.806Z,96161.63
2022-12-15T16:19:08.619Z,96159.03
2022-12-15T16:21:37.076Z,96153.97
2022-12-15T16:24:15.635Z,96148.09
2022-12-15T16:26:47.922Z,96149.31
2022-12-15T16:29:17.534Z,96159.75
2022-12-15T16:31:45.841Z,96151.25
2022-12-15T16:34:14.017Z,96159.75
2022-12-15T16:36:42.881Z,96161.34
2022-12-15T16:39:26.724Z,96162.53
2022-12-15T16:41:56.160Z,96162.66
2022-12-15T16:44:25.325Z,96155.69
2022-12-15T16:46:53.272Z,96155.56
2022-12-15T16:49:21.588Z,96150.47
2022-12-15T16:51:52.742Z,96160.63
2022-12-15T16:54:26.440Z,96164.22
2022-12-15T16:56:55.346Z,96167.03
2022-12-15T16:59:35.324Z,96166.13
2022-12-15T17:02:28.923Z,96157.53
2022-12-15T17:04:56.524Z,96168.91
2022-12-15T17:07:27.202Z,96172.47
2022-12-15T17:09:54.667Z,96186.00
2022-12-15T17:12:22.577Z,96186.03
2022-12-15T17:14:49.678Z,96187.88
2022-12-15T17:17:19.515Z,96188.81
2022-12-15T17:20:20.023Z,96178.63
2022-12-15T17:22:34.188Z,96186.22
2022-12-15T17:25:02.169Z,96177.59
2022-12-15T17:27:30.554Z,96181.06
2022-12-15T17:30:00.205Z,96176.75
2022-12-15T17:32:27.159Z,96171.72
2022-12-15T17:34:54.848Z,96180.25
2022-12-15T17:37:22.269Z,96180.31
2022-12-15T17:39:51.509Z,96180.22
2022-12-15T17:42:20.770Z,96181.13
2022-12-15T17:44:48.974Z,96169.97
2022-12-15T17:47:19.288Z,96163.97
2022-12-15T17:49:47.806Z,96168.28
2022-12-15T17:52:22.858Z,96164.13
2022-12-15T17:54:51.985Z,96162.50
2022-12-15T17:57:19.633Z,96162.44
2022-12-15T17:59:48.802Z,96160.75
2022-12-15T18:02:16.956Z,96159.91
2022-12-15T18:04:45.311Z,96156.59
2022-12-15T18:07:24.202Z,96154.88
2022-12-15T18:09:52.483Z,96161.81
2022-12-15T18:12:25.395Z,96154.13
2022-12-15T18:14:53.057Z,96149.00
2022-12-15T18:17:20.397Z,96151.44
2022-12-15T18:19:47.305Z,96165.13
2022-12-15T18:22:19.187Z,96154.28
2022-12-15T18:24:47.200Z,96155.84
2022-12-15T18:27:23.526Z,96151.63
2022-12-15T18:29:50.702Z,96146.56
2022-12-15T18:32:18.002Z,96141.56
2022-12-15T18:34:44.809Z,96150.19
2022-12-15T18:37:19.264Z,96143.34
2022-12-15T18:39:46.578Z,96144.19
2022-12-15T18:42:19.674Z,96158.63
2022-12-15T18:44:49.225Z,96149.31
2022-12-15T18:47:21.771Z,96156.16
2022-12-15T18:49:49.289Z,96156.06
2022-12-15T18:52:21.526Z,96158.47
2022-12-15T18:54:50.551Z,96159.22
2022-12-15T18:57:27.146Z,96153.06
2022-12-15T18:59:57.405Z,96158.00
2022-12-15T19:02:24.202Z,96156.28
2022-12-15T19:04:50.991Z,96163.03
2022-12-15T19:07:17.565Z,96158.66
2022-12-15T19:09:44.166Z,96168.03
2022-12-15T19:12:17.952Z,96168.03
2022-12-15T19:14:47.080Z,96167.09
2022-12-15T19:17:35.336Z,96161.91
2022-12-15T19:20:22.149Z,96157.59
2022-12-15T19:22:50.658Z,96162.75
2022-12-15T19:25:25.976Z,96160.19
2022-12-15T19:27:58.749Z,96160.13
2022-12-15T19:30:28.366Z,96163.59
2022-12-15T19:32:55.349Z,96166.25
2022-12-15T19:35:22.060Z,96169.63
2022-12-15T19:37:49.934Z,96168.72
2022-12-15T19:40:22.669Z,96167.06
2022-12-15T19:42:50.269Z,96170.53
2022-12-15T19:45:20.255Z,96169.00
2022-12-15T19:47:47.953Z,96169.94
2022-12-15T19:50:20.961Z,96176.75
2022-12-15T19:52:51.534Z,96177.72
2022-12-15T19:55:23.777Z,96178.63
2022-12-15T19:57:50.376Z,96174.41
2022-12-15T20:00:21.770Z,96183.06
2022-12-15T20:02:51.359Z,96178.13
2022-12-15T20:05:19.439Z,96175.66
2022-12-15T20:07:46.376Z,96177.50
2022-12-15T20:10:24.385Z,96171.59
2022-12-15T20:12:54.513Z,96167.28
2022-12-15T20:15:23.985Z,96164.81
2022-12-15T20:17:57.064Z,96162.28
2022-12-15T20:20:27.107Z,96159.75
2022-12-15T20:22:56.684Z,96154.59
2022-12-15T20:25:30.329Z,96149.53
2022-12-15T20:27:57.702Z,96143.53
2022-12-15T20:30:32.071Z,96139.31
2022-12-15T20:33:04.030Z,96133.44
2022-12-15T20:35:34.630Z,96132.66
2022-12-15T20:38:07.987Z,96129.22
2022-12-15T20:40:34.541Z,96132.59
2022-12-15T20:43:01.409Z,96131.78
2022-12-15T20:45:28.036Z,96137.75
2022-12-15T20:47:56.195Z,96138.66
2022-12-15T20:50:31.932Z,96142.97
2022-12-15T20:52:59.121Z,96138.81
2022-12-15T20:55:26.416Z,96145.53
2022-12-15T20:57:53.979Z,96141.13
2022-12-15T21:00:22.114Z,96146.16
2022-12-15T21:02:50.296Z,96139.31
2022-12-15T21:05:25.015Z,96146.94
2022-12-15T21:07:52.437Z,96150.41
2022-12-15T21:10:20.647Z,96149.59
2022-12-15T21:12:49.343Z,96157.28
2022-12-15T21:15:23.491Z,96153.84
2022-12-15T21:18:08.856Z,96152.16
2022-12-15T21:20:41.437Z,96149.63
2022-12-15T21:23:19.649Z,96153.88
2022-12-15T21:25:47.280Z,96152.09
2022-12-15T21:28:14.194Z,96157.16
2022-12-15T21:30:41.280Z,96159.63
2022-12-15T21:33:07.926Z,96154.47
2022-12-15T21:35:35.289Z,96154.28
2022-12-15T21:38:02.365Z,96160.97
2022-12-15T21:40:29.514Z,96161.78
2022-12-15T21:42:56.924Z,96158.31
2022-12-15T21:45:25.909Z,96157.47
2022-12-15T21:48:12.493Z,96154.03
2022-12-15T21:50:39.536Z,96148.94
2022-12-15T21:53:06.961Z,96156.53
2022-12-15T21:55:33.719Z,96159.00
2022-12-15T21:58:00.262Z,96152.97
2022-12-15T22:00:26.918Z,96157.91
2022-12-15T22:02:53.786Z,96165.56
2022-12-15T22:05:22.852Z,96164.66
2022-12-15T22:07:50.492Z,96160.31
2022-12-15T22:10:18.292Z,96169.78
2022-12-15T22:12:51.491Z,96179.13
2022-12-15T22:15:24.319Z,96179.22
2022-12-15T22:17:50.904Z,96177.56
2022-12-15T22:20:22.650Z,96180.13
2022-12-15T22:22:50.209Z,96181.78
2022-12-15T22:25:25.004Z,96180.94
2022-12-15T22:27:52.518Z,96183.38
2022-12-15T22:30:26.503Z,96189.34
2022-12-15T22:32:53.818Z,96191.06
2022-12-15T22:35:23.161Z,96191.09
2022-12-15T22:37:53.391Z,96202.28
2022-12-15T22:40:21.569Z,96191.13
2022-12-15T22:42:55.155Z,96194.47
2022-12-15T22:45:24.112Z,96200.41
2022-12-15T22:47:52.369Z,96204.59
2022-12-15T22:50:23.610Z,96205.34
2022-12-15T22:52:50.611Z,96204.47
2022-12-15T22:55:20.568Z,96202.69
2022-12-15T22:57:56.612Z,96200.03
2022-12-15T23:00:23.203Z,96202.56
2022-12-15T23:02:49.936Z,96200.03
2022-12-15T23:05:18.974Z,96199.31
2022-12-15T23:07:46.251Z,96203.63
2022-12-15T23:10:33.643Z,96197.75
2022-12-15T23:13:00.202Z,96202.06
2022-12-15T23:15:47.179Z,96198.69
2022-12-15T23:18:14.339Z,96196.09
2022-12-15T23:20:41.204Z,96200.34
2022-12-15T23:23:08.340Z,96196.81
2022-12-15T23:25:34.960Z,96200.50
2022-12-15T23:28:01.544Z,96192.09
2022-12-15T23:30:28.102Z,96202.34
2022-12-15T23:32:55.411Z,96201.56
2022-12-15T23:35:22.183Z,96207.56
2022-12-15T23:37:48.806Z,96199.13
2022-12-15T23:40:21.273Z,96202.69
2022-12-15T23:42:48.774Z,96197.72
2022-12-15T23:45:15.481Z,96194.38
2022-12-15T23:47:42.414Z,96199.44
2022-12-15T23:50:09.603Z,96198.56
2022-12-15T23:52:36.865Z,96193.47
2022-12-15T23:55:04.637Z,96185.88
2022-12-15T23:57:31.517Z,96193.47
2022-12-15T23:59:58.087Z,96190.97
